createdAt,value
2022-10-11T00:01:36.009Z,6.30
2022-10-11T00:04:02.484Z,5.85
2022-10-11T00:06:28.972Z,6.70
2022-10-11T00:08:55.376Z,5.70
2022-10-11T00:11:21.983Z,6.07
2022-10-11T00:13:48.431Z,6.45
2022-10-11T00:16:16.559Z,6.20
2022-10-11T00:18:43.002Z,6.22
2022-10-11T00:21:13.811Z,6.50
2022-10-11T00:23:41.234Z,6.20
2022-10-11T00:26:10.076Z,6.07
2022-10-11T00:28:37.609Z,6.60
2022-10-11T00:31:08.019Z,6.40
2022-10-11T00:33:35.196Z,6.75
2022-10-11T00:36:02.301Z,6.25
2022-10-11T00:38:31.590Z,7.03
2022-10-11T00:40:59.031Z,6.93
2022-10-11T00:43:28.064Z,6.75
2022-10-11T00:45:57.594Z,7.45
2022-10-11T00:48:40.922Z,6.38
2022-10-11T00:51:15.038Z,7.22
2022-10-11T00:53:42.215Z,7.18
2022-10-11T00:56:24.908Z,6.43
2022-10-11T00:58:52.810Z,6.53
2022-10-11T01:01:19.418Z,6.38
2022-10-11T01:03:46.400Z,5.55
2022-10-11T01:06:12.891Z,6.32
2022-10-11T01:08:39.716Z,6.68
2022-10-11T01:11:06.638Z,6.45
2022-10-11T01:13:49.567Z,7.32
2022-10-11T01:16:15.947Z,6.38
2022-10-11T01:19:25.179Z,7.22
2022-10-11T01:22:14.943Z,6.40
2022-10-11T01:25:05.633Z,6.05
2022-10-11T01:27:53.381Z,6.53
2022-10-11T01:33:37.279Z,5.45
2022-10-11T01:36:45.317Z,5.60
2022-10-11T01:39:31.263Z,5.85
2022-10-11T01:42:18.572Z,5.75
2022-10-11T01:44:47.684Z,5.45
2022-10-11T01:47:19.279Z,6.43
2022-10-11T01:49:46.216Z,6.05
2022-10-11T01:52:12.853Z,5.63
2022-10-11T01:55:08.777Z,6.30
2022-10-11T01:58:23.142Z,5.95
2022-10-11T02:01:06.019Z,5.95
2022-10-11T02:03:49.333Z,5.93
2022-10-11T02:06:51.256Z,6.03
2022-10-11T02:09:36.762Z,5.72
2022-10-11T02:12:09.155Z,5.55
2022-10-11T02:14:43.669Z,6.18
2022-10-11T02:17:18.324Z,6.53
2022-10-11T02:19:49.917Z,5.63
2022-10-11T02:22:24.709Z,6.75
2022-10-11T02:24:55.136Z,6.93
2022-10-11T02:27:24.955Z,7.28
2022-10-11T02:29:54.221Z,7.50
2022-10-11T02:32:23.960Z,6.68
2022-10-11T02:34:59.073Z,6.85
2022-10-11T02:37:43.708Z,6.50
2022-10-11T02:40:32.457Z,6.50
2022-10-11T02:43:12.062Z,6.78
2022-10-11T02:45:43.359Z,7.13
2022-10-11T02:48:11.966Z,7.05
2022-10-11T02:50:43.173Z,7.10
2022-10-11T02:53:09.886Z,7.03
2022-10-11T02:55:36.592Z,5.80
2022-10-11T02:58:03.420Z,6.07
2022-10-11T03:00:30.164Z,6.20
2022-10-11T03:02:56.678Z,6.57
2022-10-11T03:05:23.223Z,6.50
2022-10-11T03:07:49.728Z,6.57
2022-10-11T03:10:16.351Z,6.35
2022-10-11T03:12:42.828Z,7.13
2022-10-11T03:15:09.737Z,6.50
2022-10-11T03:17:37.365Z,6.47
2022-10-11T03:20:05.925Z,6.45
2022-10-11T03:22:32.415Z,6.47
2022-10-11T03:25:03.532Z,6.60
2022-10-11T03:27:31.663Z,6.47
2022-10-11T03:29:58.180Z,5.63
2022-10-11T03:32:24.881Z,6.43
2022-10-11T03:34:51.449Z,5.65
2022-10-11T03:37:18.422Z,6.78
2022-10-11T03:39:45.920Z,6.38
2022-10-11T03:42:13.320Z,6.68
2022-10-11T03:44:39.796Z,6.78
2022-10-11T03:47:06.223Z,7.60
2022-10-11T03:49:32.835Z,6.80
2022-10-11T03:51:59.414Z,6.85
2022-10-11T03:54:26.228Z,7.03
2022-10-11T03:56:52.948Z,7.78
2022-10-11T03:59:19.377Z,6.72
2022-10-11T04:01:45.859Z,7.35
2022-10-11T04:04:12.382Z,7.35
2022-10-11T04:06:38.849Z,7.18
2022-10-11T04:09:05.431Z,7.07
2022-10-11T04:11:31.895Z,6.88
2022-10-11T04:13:58.648Z,8.10
2022-10-11T04:16:26.207Z,8.27
2022-10-11T04:18:52.912Z,8.13
2022-10-11T04:21:19.367Z,7.45
2022-10-11T04:23:45.881Z,7.95
2022-10-11T04:26:12.334Z,7.25
2022-10-11T04:28:39.119Z,6.88
2022-10-11T04:31:06.632Z,6.95
2022-10-11T04:33:33.533Z,8.10
2022-10-11T04:36:00.084Z,8.30
2022-10-11T04:38:26.531Z,7.55
2022-10-11T04:40:53.032Z,7.65
2022-10-11T04:43:19.758Z,7.53
2022-10-11T04:45:46.461Z,6.93
2022-10-11T04:48:14.014Z,8.48
2022-10-11T04:50:40.508Z,9.70
2022-10-11T04:53:14.715Z,7.93
2022-10-11T04:55:41.160Z,7.22
2022-10-11T04:58:07.573Z,7.50
2022-10-11T05:00:34.080Z,7.93
2022-10-11T05:03:00.569Z,8.15
2022-10-11T05:05:27.099Z,9.20
2022-10-11T05:07:53.616Z,8.95
2022-10-11T05:10:20.108Z,9.05
2022-10-11T05:12:46.615Z,8.90
2022-10-11T05:15:13.167Z,22.58
2022-10-11T05:17:39.607Z,13.32
2022-10-11T05:20:06.840Z,9.50
2022-10-11T05:22:33.240Z,9.45
2022-10-11T05:24:59.728Z,10.35
2022-10-11T05:27:26.306Z,10.23
2022-10-11T05:29:52.723Z,9.43
2022-10-11T05:32:19.177Z,9.57
2022-10-11T05:34:45.664Z,9.45
2022-10-11T05:37:12.087Z,9.63
2022-10-11T05:39:38.549Z,10.68
2022-10-11T05:42:09.622Z,11.57
2022-10-11T05:44:36.428Z,10.57
2022-10-11T05:47:03.142Z,10.95
2022-10-11T05:49:29.580Z,10.93
2022-10-11T05:51:56.684Z,9.77
2022-10-11T05:54:23.343Z,10.25
2022-10-11T05:56:49.844Z,9.80
2022-10-11T05:59:16.377Z,11.15
2022-10-11T06:01:42.907Z,12.55
2022-10-11T06:04:09.915Z,9.55
2022-10-11T06:06:36.346Z,10.52
2022-10-11T06:09:02.884Z,10.50
2022-10-11T06:11:29.440Z,9.93
2022-10-11T06:14:00.856Z,10.13
2022-10-11T06:16:27.583Z,10.52
2022-10-11T06:18:55.038Z,10.93
2022-10-11T06:21:22.126Z,11.20
2022-10-11T06:23:50.755Z,12.63
2022-10-11T06:26:18.209Z,11.32
2022-10-11T06:28:44.859Z,11.70
2022-10-11T06:31:12.553Z,10.88
2022-10-11T06:33:39.484Z,11.00
2022-10-11T06:36:09.772Z,10.73
2022-10-11T06:38:39.831Z,10.35
2022-10-11T06:41:17.863Z,10.35
2022-10-11T06:43:44.896Z,10.50
2022-10-11T06:46:12.331Z,10.25
2022-10-11T06:48:43.509Z,9.25
2022-10-11T06:51:13.759Z,8.98
2022-10-11T06:53:40.894Z,9.20
2022-10-11T06:56:09.946Z,9.25
2022-10-11T06:58:37.626Z,8.60
2022-10-11T07:01:06.440Z,8.57
2022-10-11T07:03:33.363Z,9.45
2022-10-11T07:06:05.124Z,8.52
2022-10-11T07:08:32.331Z,8.50
2022-10-11T07:11:20.211Z,8.48
2022-10-11T07:13:56.446Z,7.95
2022-10-11T07:16:23.664Z,8.05
2022-10-11T07:18:59.913Z,8.32
2022-10-11T07:21:27.767Z,8.13
2022-10-11T07:23:54.277Z,7.50
2022-10-11T07:26:20.798Z,6.72
2022-10-11T07:28:47.515Z,7.25
2022-10-11T07:31:17.870Z,7.93
2022-10-11T07:33:44.371Z,7.93
2022-10-11T07:36:11.584Z,7.70
2022-10-11T07:38:46.270Z,7.57
2022-10-11T07:41:13.429Z,7.10
2022-10-11T07:43:40.188Z,7.95
2022-10-11T07:46:07.432Z,7.30
2022-10-11T07:48:35.653Z,7.22
2022-10-11T07:51:15.072Z,8.13
2022-10-11T07:53:43.622Z,7.03
2022-10-11T07:56:12.616Z,7.32
2022-10-11T07:58:40.643Z,7.07
2022-10-11T08:01:08.435Z,6.82
2022-10-11T08:03:35.494Z,6.82
2022-10-11T08:06:05.106Z,7.22
2022-10-11T08:08:31.729Z,7.50
2022-10-11T08:10:59.421Z,6.13
2022-10-11T08:13:26.676Z,6.18
2022-10-11T08:15:53.874Z,6.93
2022-10-11T08:18:20.310Z,6.03
2022-10-11T08:20:47.028Z,6.22
2022-10-11T08:23:13.831Z,6.25
2022-10-11T08:25:42.535Z,6.25
2022-10-11T08:28:10.086Z,6.60
2022-10-11T08:30:36.651Z,6.20
2022-10-11T08:33:07.612Z,6.05
2022-10-11T08:35:36.165Z,5.97
2022-10-11T08:38:02.816Z,5.45
2022-10-11T08:40:34.264Z,5.35
2022-10-11T08:43:08.285Z,5.70
2022-10-11T08:45:57.212Z,5.70
2022-10-11T08:48:41.659Z,4.90
2022-10-11T08:51:28.238Z,4.95
2022-10-11T08:54:12.421Z,5.25
2022-10-11T08:56:40.787Z,4.93
2022-10-11T08:59:13.420Z,5.35
2022-10-11T09:02:21.527Z,5.78
2022-10-11T09:04:51.566Z,5.55
2022-10-11T09:07:34.490Z,5.20
2022-10-11T09:10:41.259Z,4.82
2022-10-11T09:13:16.884Z,5.18
2022-10-11T09:16:07.219Z,4.63
2022-10-11T09:18:41.089Z,5.50
2022-10-11T09:21:52.454Z,5.03
2022-10-11T09:24:37.077Z,4.80
2022-10-11T09:28:01.330Z,5.05
2022-10-11T09:30:23.167Z,5.22
2022-10-11T09:33:09.511Z,5.38
2022-10-11T09:35:44.231Z,5.30
2022-10-11T09:38:37.739Z,5.50
2022-10-11T09:41:21.803Z,5.50
2022-10-11T09:43:50.968Z,5.38
2022-10-11T09:46:40.340Z,5.30
2022-10-11T09:49:15.923Z,5.20
2022-10-11T09:51:47.427Z,5.05
2022-10-11T09:54:13.921Z,5.65
2022-10-11T09:56:43.542Z,5.20
2022-10-11T09:59:10.004Z,7.00
2022-10-11T10:01:36.700Z,5.15
2022-10-11T10:04:10.881Z,4.82
2022-10-11T10:06:38.613Z,4.60
2022-10-11T10:09:28.733Z,5.35
2022-10-11T10:11:55.964Z,5.10
2022-10-11T10:14:28.647Z,5.53
2022-10-11T10:17:13.561Z,5.20
2022-10-11T10:19:47.211Z,6.00
2022-10-11T10:22:20.459Z,4.97
2022-10-11T10:24:50.097Z,5.38
2022-10-11T10:27:28.088Z,5.60
2022-10-11T10:30:09.863Z,5.43
2022-10-11T10:32:48.540Z,5.95
2022-10-11T10:35:38.909Z,5.38
2022-10-11T10:38:17.110Z,5.32
2022-10-11T10:40:56.573Z,5.40
2022-10-11T10:43:26.334Z,5.85
2022-10-11T10:46:34.120Z,5.50
2022-10-11T10:52:03.200Z,5.47
2022-10-11T10:54:40.618Z,5.20
2022-10-11T10:57:33.487Z,5.05
2022-10-11T11:00:05.992Z,5.03
2022-10-11T11:02:44.685Z,5.20
2022-10-11T11:05:28.565Z,5.07
2022-10-11T11:08:05.667Z,5.13
2022-10-11T11:10:53.987Z,5.82
2022-10-11T11:13:20.389Z,5.45
2022-10-11T11:16:00.053Z,4.97
2022-10-11T11:18:41.094Z,4.90
2022-10-11T11:24:00.381Z,5.15
2022-10-11T11:26:54.600Z,5.30
2022-10-11T11:29:44.391Z,5.05
2022-10-11T11:32:23.363Z,5.70
2022-10-11T11:34:58.352Z,4.97
2022-10-11T11:37:44.089Z,4.78
2022-10-11T11:40:21.783Z,5.50
2022-10-11T11:42:51.544Z,5.18
2022-10-11T11:45:27.105Z,4.60
2022-10-11T11:48:05.576Z,5.13
2022-10-11T11:50:40.103Z,4.68
2022-10-11T11:53:16.722Z,4.88
2022-10-11T11:56:19.545Z,5.05
2022-10-11T11:58:59.559Z,5.13
2022-10-11T12:01:32.035Z,5.45
2022-10-11T12:04:04.549Z,4.85
2022-10-11T12:06:34.040Z,4.40
2022-10-11T12:09:22.317Z,4.88
2022-10-11T12:11:56.216Z,4.53
2022-10-11T12:14:32.952Z,4.35
2022-10-11T12:17:11.048Z,4.75
2022-10-11T12:19:40.035Z,5.18
2022-10-11T12:22:28.038Z,4.40
2022-10-11T12:25:01.206Z,4.75
2022-10-11T12:27:45.168Z,4.68
2022-10-11T12:30:42.821Z,4.68
2022-10-11T12:33:21.329Z,4.18
2022-10-11T12:36:01.513Z,4.25
2022-10-11T12:38:37.294Z,4.18
2022-10-11T12:41:09.816Z,4.82
2022-10-11T12:44:01.717Z,4.32
2022-10-11T12:46:28.159Z,4.70
2022-10-11T12:49:16.918Z,5.03
2022-10-11T12:51:46.345Z,4.30
2022-10-11T12:54:45.334Z,4.15
2022-10-11T12:57:47.158Z,4.30
2022-10-11T13:00:32.075Z,4.75
2022-10-11T13:03:04.785Z,4.18
2022-10-11T13:05:46.952Z,4.90
2022-10-11T13:08:22.827Z,4.85
2022-10-11T13:10:49.551Z,5.05
2022-10-11T13:13:49.406Z,5.03
2022-10-11T13:16:19.064Z,4.57
2022-10-11T13:18:48.298Z,4.38
2022-10-11T13:21:21.463Z,4.60
2022-10-11T13:23:55.385Z,3.97
2022-10-11T13:26:21.801Z,4.45
2022-10-11T13:28:48.339Z,4.65
2022-10-11T13:31:14.909Z,4.70
2022-10-11T13:33:43.286Z,4.75
2022-10-11T13:36:17.578Z,4.68
2022-10-11T13:38:53.614Z,5.05
2022-10-11T13:41:21.688Z,3.83
2022-10-11T13:43:48.437Z,4.35
2022-10-11T13:46:22.382Z,4.57
2022-10-11T13:49:26.544Z,3.83
2022-10-11T13:52:01.861Z,4.63
2022-10-11T13:54:53.212Z,4.82
2022-10-11T13:57:22.078Z,4.35
2022-10-11T13:59:48.847Z,3.95
2022-10-11T14:02:23.770Z,4.70
2022-10-11T14:04:50.453Z,5.15
2022-10-11T14:07:31.743Z,4.82
2022-10-11T14:09:58.358Z,4.78
2022-10-11T14:12:35.680Z,4.60
2022-10-11T14:15:05.173Z,4.97
2022-10-11T14:17:43.721Z,6.10
2022-10-11T14:20:33.441Z,5.00
2022-10-11T14:23:00.084Z,5.97
2022-10-11T14:25:26.719Z,4.50
2022-10-11T14:27:54.634Z,4.75
2022-10-11T14:30:26.579Z,4.93
2022-10-11T14:32:56.577Z,5.05
2022-10-11T14:35:28.918Z,4.65
2022-10-11T14:37:55.464Z,3.60
2022-10-11T14:40:24.587Z,4.68
2022-10-11T14:42:51.348Z,4.68
2022-10-11T14:45:18.806Z,4.47
2022-10-11T14:47:45.367Z,4.75
2022-10-11T14:50:28.582Z,4.50
2022-10-11T14:52:55.944Z,4.10
2022-10-11T14:55:22.772Z,4.18
2022-10-11T14:57:49.206Z,4.32
2022-10-11T15:00:22.668Z,4.82
2022-10-11T15:02:50.817Z,4.80
2022-10-11T15:05:17.253Z,4.53
2022-10-11T15:07:43.948Z,3.63
2022-10-11T15:10:45.401Z,5.03
2022-10-11T15:13:11.826Z,4.05
2022-10-11T15:15:41.210Z,4.53
2022-10-11T15:18:21.116Z,3.88
2022-10-11T15:20:47.826Z,3.72
2022-10-11T15:23:14.352Z,3.97
2022-10-11T15:25:41.475Z,4.25
2022-10-11T15:28:13.852Z,3.60
2022-10-11T15:30:41.848Z,4.22
2022-10-11T15:33:08.381Z,3.90
2022-10-11T15:35:34.864Z,4.75
2022-10-11T15:38:01.353Z,4.82
2022-10-11T15:40:33.639Z,4.57
2022-10-11T15:43:00.310Z,4.15
2022-10-11T15:45:27.059Z,4.47
2022-10-11T15:47:53.683Z,4.28
2022-10-11T15:50:36.710Z,6.60
2022-10-11T15:53:15.513Z,4.28
2022-10-11T15:55:45.042Z,4.72
2022-10-11T15:58:33.330Z,4.72
2022-10-11T16:01:05.373Z,4.25
2022-10-11T16:03:33.407Z,4.22
2022-10-11T16:06:04.948Z,4.53
2022-10-11T16:08:32.873Z,5.25
2022-10-11T16:11:02.705Z,4.93
2022-10-11T16:13:29.160Z,4.55
2022-10-11T16:15:55.795Z,4.72
2022-10-11T16:18:22.444Z,5.50
2022-10-11T16:20:54.253Z,6.57
2022-10-11T16:23:21.991Z,5.47
2022-10-11T16:26:06.817Z,8.90
2022-10-11T16:28:36.805Z,6.35
2022-10-11T16:31:13.127Z,5.47
2022-10-11T16:33:45.692Z,6.53
2022-10-11T16:36:35.726Z,6.03
2022-10-11T16:39:28.980Z,6.55
2022-10-11T16:41:55.447Z,7.05
2022-10-11T16:44:25.267Z,6.55
2022-10-11T16:46:52.017Z,5.90
2022-10-11T16:49:22.538Z,5.95
2022-10-11T16:51:50.861Z,5.28
2022-10-11T16:56:50.676Z,6.03
2022-10-11T16:59:17.438Z,6.28
2022-10-11T17:01:45.130Z,5.57
2022-10-11T17:04:12.095Z,5.65
2022-10-11T17:06:40.221Z,5.38
2022-10-11T17:09:07.420Z,5.65
2022-10-11T17:11:33.951Z,6.40
2022-10-11T17:14:01.735Z,5.63
2022-10-11T17:16:28.652Z,5.45
2022-10-11T17:18:55.111Z,5.43
2022-10-11T17:21:21.978Z,5.85
2022-10-11T17:23:49.344Z,5.13
2022-10-11T17:26:27.542Z,4.68
2022-10-11T17:28:58.536Z,4.55
2022-10-11T17:31:25.327Z,5.07
2022-10-11T17:33:53.205Z,5.65
2022-10-11T17:36:30.477Z,6.25
2022-10-11T17:38:58.033Z,7.43
2022-10-11T17:41:29.456Z,7.32
2022-10-11T17:43:58.262Z,6.35
2022-10-11T17:46:25.790Z,6.32
2022-10-11T17:48:54.955Z,5.78
2022-10-11T17:51:21.412Z,5.80
2022-10-11T17:53:48.576Z,6.00
2022-10-11T17:56:18.729Z,5.45
2022-10-11T17:58:45.785Z,6.57
2022-10-11T18:01:14.860Z,9.98
2022-10-11T18:03:42.527Z,5.10
2022-10-11T18:06:13.225Z,5.60
2022-10-11T18:08:41.056Z,4.82
2022-10-11T18:11:13.761Z,4.80
2022-10-11T18:13:45.597Z,5.03
2022-10-11T18:16:14.740Z,5.50
2022-10-11T18:18:42.260Z,5.57
2022-10-11T18:21:08.941Z,4.65
2022-10-11T18:23:37.400Z,5.05
2022-10-11T18:26:11.836Z,5.03
2022-10-11T18:28:38.900Z,6.47
2022-10-11T18:31:13.477Z,6.38
2022-10-11T18:33:40.964Z,6.40
2022-10-11T18:36:08.409Z,6.35
2022-10-11T18:38:35.877Z,5.65
2022-10-11T18:41:07.639Z,6.32
2022-10-11T18:43:34.872Z,6.18
2022-10-11T18:46:12.420Z,6.32
2022-10-11T18:48:43.968Z,5.38
2022-10-11T18:51:14.355Z,5.22
2022-10-11T18:53:41.825Z,5.60
2022-10-11T18:56:10.406Z,5.32
2022-10-11T18:58:38.834Z,5.90
2022-10-11T19:01:13.256Z,5.32
2022-10-11T19:03:39.687Z,5.55
2022-10-11T19:06:09.313Z,5.20
2022-10-11T19:08:35.896Z,5.40
2022-10-11T19:11:10.385Z,5.10
2022-10-11T19:13:36.964Z,5.93
2022-10-11T19:16:14.590Z,5.07
2022-10-11T19:18:44.301Z,5.38
2022-10-11T19:21:12.979Z,6.32
2022-10-11T19:26:09.080Z,5.35
2022-10-11T19:28:35.845Z,5.15
2022-10-11T19:31:05.067Z,4.95
2022-10-11T19:33:32.995Z,5.25
2022-10-11T19:36:05.603Z,5.85
2022-10-11T19:38:34.452Z,6.10
2022-10-11T19:41:01.756Z,5.93
2022-10-11T19:43:28.207Z,5.28
2022-10-11T19:46:20.221Z,6.18
2022-10-11T19:48:54.286Z,5.13
2022-10-11T19:51:25.798Z,5.20
2022-10-11T19:54:00.187Z,5.28
2022-10-11T19:56:28.974Z,5.30
2022-10-11T19:58:55.487Z,5.13
2022-10-11T20:01:24.623Z,5.00
2022-10-11T20:03:54.068Z,5.63
2022-10-11T20:06:21.997Z,5.47
2022-10-11T20:09:10.301Z,5.43
2022-10-11T20:11:38.819Z,5.70
2022-10-11T20:14:05.223Z,5.65
2022-10-11T20:16:31.714Z,5.88
2022-10-11T20:18:59.217Z,5.70
2022-10-11T20:21:27.743Z,6.00
2022-10-11T20:23:58.931Z,6.90
2022-10-11T20:26:26.876Z,7.70
2022-10-11T20:28:56.072Z,6.55
2022-10-11T20:31:25.999Z,6.75
2022-10-11T20:33:56.407Z,6.57
2022-10-11T20:36:25.204Z,5.82
2022-10-11T20:38:54.261Z,5.68
2022-10-11T20:41:23.907Z,6.55
2022-10-11T20:43:56.697Z,5.55
2022-10-11T20:49:18.969Z,7.13
2022-10-11T20:51:47.965Z,6.57
2022-10-11T20:56:55.482Z,6.05
2022-10-11T20:59:25.592Z,6.15
2022-10-11T21:01:54.120Z,5.78
2022-10-11T21:04:20.805Z,5.95
2022-10-11T21:06:48.535Z,5.82
2022-10-11T21:09:32.772Z,6.10
2022-10-11T21:12:02.797Z,5.82
2022-10-11T21:14:29.296Z,5.30
2022-10-11T21:16:55.964Z,5.65
2022-10-11T21:19:22.607Z,5.45
2022-10-11T21:21:53.523Z,5.65
2022-10-11T21:24:20.579Z,6.45
2022-10-11T21:26:47.802Z,5.63
2022-10-11T21:29:14.347Z,5.00
2022-10-11T21:31:40.867Z,5.40
2022-10-11T21:34:07.493Z,5.65
2022-10-11T21:36:34.101Z,6.00
2022-10-11T21:39:00.528Z,5.70
2022-10-11T21:41:30.001Z,5.75
2022-10-11T21:43:57.191Z,6.28
2022-10-11T21:46:41.747Z,5.82
2022-10-11T21:49:12.880Z,6.45
2022-10-11T21:51:39.371Z,6.30
2022-10-11T21:54:05.907Z,5.80
2022-10-11T21:56:32.561Z,5.45
2022-10-11T21:58:59.224Z,6.15
2022-10-11T22:01:25.779Z,5.85
2022-10-11T22:03:55.270Z,5.88
2022-10-11T22:06:22.109Z,6.65
2022-10-11T22:08:50.041Z,6.32
2022-10-11T22:11:16.864Z,6.47
2022-10-11T22:13:43.341Z,7.05
2022-10-11T22:16:12.793Z,6.65
2022-10-11T22:18:39.789Z,5.85
2022-10-11T22:21:09.737Z,6.03
2022-10-11T22:23:36.538Z,5.95
2022-10-11T22:26:13.159Z,5.07
2022-10-11T22:28:40.510Z,6.05
2022-10-11T22:31:09.267Z,5.38
2022-10-11T22:33:36.519Z,5.40
2022-10-11T22:36:06.345Z,5.85
2022-10-11T22:38:35.058Z,6.20
2022-10-11T22:41:01.518Z,5.88
2022-10-11T22:43:27.972Z,6.15
2022-10-11T22:45:54.452Z,6.07
2022-10-11T22:48:21.105Z,5.60
2022-10-11T22:50:47.598Z,6.03
2022-10-11T22:53:14.751Z,6.15
2022-10-11T22:55:41.868Z,5.88
2022-10-11T22:58:09.020Z,6.30
2022-10-11T23:00:35.928Z,5.43
2022-10-11T23:03:02.371Z,6.22
2022-10-11T23:05:28.854Z,6.70
2022-10-11T23:07:55.387Z,5.70
2022-10-11T23:10:21.926Z,6.40
2022-10-11T23:12:48.462Z,6.28
2022-10-11T23:15:15.429Z,5.57
2022-10-11T23:17:42.363Z,5.47
2022-10-11T23:20:09.529Z,5.82
2022-10-11T23:22:36.163Z,6.45
2022-10-11T23:25:02.881Z,5.53
2022-10-11T23:27:30.347Z,6.07
2022-10-11T23:29:56.868Z,5.72
2022-10-11T23:32:23.421Z,5.45
2022-10-11T23:34:49.901Z,5.82
2022-10-11T23:37:16.385Z,5.85
2022-10-11T23:39:42.912Z,5.47
2022-10-11T23:42:09.355Z,6.10
2022-10-11T23:44:35.801Z,5.88
2022-10-11T23:47:02.313Z,5.90
2022-10-11T23:49:28.750Z,5.85
2022-10-11T23:51:55.157Z,5.50
2022-10-11T23:54:21.599Z,5.60
2022-10-11T23:56:48.026Z,5.63
2022-10-11T23:59:14.531Z,5.35
